Time;durP1;ratioP1;P1;durP2;ratioP2;P2;SDS_P1;SDS_P2;PMS_P1;PMS_P2;Temp;Humidity;BMP_temperature;BMP_pressure;BME280_temperature;BME280_humidity;BME280_pressure;Samples;Min_cycle;Max_cycle;Signal;HPM_P1;HPM_P2
2023/08/13 00:02:02;;;;;;;12.48;11.88;;;;;;;;;;5075242;28;20020;-60
2023/08/13 00:04:27;;;;;;;12.35;11.75;;;;;;;;;;5069687;28;20411;-60
2023/08/13 00:06:52;;;;;;;12.40;11.80;;;;;;;;;;5071909;28;20108;-58
2023/08/13 00:09:18;;;;;;;12.20;11.60;;;;;;;;;;5071972;28;20037;-61
2023/08/13 00:11:43;;;;;;;11.93;11.43;;;;;;;;;;5075355;28;20020;-61
2023/08/13 00:14:08;;;;;;;12.40;11.80;;;;;;;;;;5070990;28;20024;-60
2023/08/13 00:16:34;;;;;;;12.32;11.73;;;;;;;;;;5055076;28;20400;-61
2023/08/13 00:18:59;;;;;;;12.00;11.50;;;;;;;;;;5070971;28;20021;-61
2023/08/13 00:21:24;;;;;;;12.30;11.70;;;;;;;;;;5071114;28;20028;-60
2023/08/13 00:23:50;;;;;;;12.27;11.68;;;;;;;;;;5071267;28;20099;-61
2023/08/13 00:26:15;;;;;;;12.38;11.77;;;;;;;;;;5072021;28;20074;-61
2023/08/13 00:28:41;;;;;;;12.25;11.65;;;;;;;;;;5070905;28;20066;-62
2023/08/13 00:31:06;;;;;;;12.20;11.60;;;;;;;;;;5072528;28;20016;-61
2023/08/13 00:33:31;;;;;;;12.05;11.50;;;;;;;;;;5070695;28;20035;-60
2023/08/13 00:35:57;;;;;;;12.10;11.50;;;;;;;;;;5070436;28;20550;-60
2023/08/13 00:38:22;;;;;;;11.68;11.18;;;;;;;;;;5071235;28;20016;-60
2023/08/13 00:40:47;;;;;;;11.90;11.40;;;;;;;;;;5072958;28;20013;-62
2023/08/13 00:43:13;;;;;;;12.30;11.70;;;;;;;;;;5071371;28;20086;-61
2023/08/13 00:45:38;;;;;;;12.30;11.70;;;;;;;;;;5071706;28;20025;-60
2023/08/13 00:48:05;;;;;;;12.00;11.50;;;;;;;;;;5070379;28;20024;-61
2023/08/13 00:50:30;;;;;;;12.38;11.77;;;;;;;;;;5069967;28;20103;-60
2023/08/13 00:52:55;;;;;;;12.48;11.88;;;;;;;;;;5073375;28;20540;-60
2023/08/13 00:55:21;;;;;;;12.60;12.00;;;;;;;;;;5071440;28;20479;-61
2023/08/13 00:57:46;;;;;;;12.45;11.85;;;;;;;;;;5072952;28;20103;-61
2023/08/13 01:00:13;;;;;;;12.07;11.52;;;;;;;;;;5073541;28;20024;-61
2023/08/13 01:02:38;;;;;;;12.10;11.55;;;;;;;;;;5071650;28;20127;-61
2023/08/13 01:05:05;;;;;;;12.20;11.63;;;;;;;;;;5068225;28;21576;-61
2023/08/13 01:07:51;;;;;;;12.25;11.65;;;;;;;;;;5073957;28;20111;-61
2023/08/13 01:10:33;;;;;;;12.40;11.80;;;;;;;;;;5067473;28;20062;-59
2023/08/13 01:13:10;;;;;;;12.32;11.73;;;;;;;;;;5071350;28;20024;-60
2023/08/13 01:15:40;;;;;;;11.93;11.38;;;;;;;;;;5069909;28;20013;-60
2023/08/13 01:18:07;;;;;;;11.80;11.30;;;;;;;;;;5070948;28;20079;-60
2023/08/13 01:20:34;;;;;;;12.30;11.70;;;;;;;;;;5065206;28;20021;-60
2023/08/13 01:22:59;;;;;;;12.23;11.63;;;;;;;;;;5067479;28;20063;-61
2023/08/13 01:25:26;;;;;;;12.40;11.80;;;;;;;;;;5074575;28;20067;-62
2023/08/13 01:28:06;;;;;;;12.10;11.50;;;;;;;;;;5069427;28;20111;-61
2023/08/13 01:30:50;;;;;;;12.07;11.48;;;;;;;;;;5070465;28;20020;-60
2023/08/13 01:33:27;;;;;;;12.13;11.53;;;;;;;;;;5068422;28;20028;-60
2023/08/13 01:36:00;;;;;;;12.10;11.50;;;;;;;;;;5071590;28;20041;-60
2023/08/13 01:38:26;;;;;;;12.07;11.52;;;;;;;;;;5069843;28;20066;-62
2023/08/13 01:40:51;;;;;;;11.73;11.23;;;;;;;;;;5069594;28;20032;-60
2023/08/13 01:43:17;;;;;;;12.60;12.00;;;;;;;;;;5071235;28;20491;-61
2023/08/13 01:45:42;;;;;;;11.80;11.30;;;;;;;;;;5068685;28;20480;-62
2023/08/13 01:48:08;;;;;;;12.43;11.82;;;;;;;;;;5069131;28;20032;-59
2023/08/13 01:50:34;;;;;;;12.50;11.90;;;;;;;;;;5071008;28;20479;-60
2023/08/13 01:53:00;;;;;;;11.98;11.38;;;;;;;;;;5070239;28;20048;-62
2023/08/13 01:55:25;;;;;;;12.20;11.60;;;;;;;;;;5069964;28;20063;-61
2023/08/13 01:57:50;;;;;;;12.50;11.90;;;;;;;;;;5072603;28;20069;-60
2023/08/13 02:00:16;;;;;;;12.32;11.73;;;;;;;;;;5072281;28;20156;-60
2023/08/13 02:02:41;;;;;;;12.02;11.48;;;;;;;;;;5070149;28;20044;-61
2023/08/13 02:05:07;;;;;;;12.02;11.45;;;;;;;;;;5073356;28;20024;-60
2023/08/13 02:07:32;;;;;;;11.65;11.15;;;;;;;;;;5070522;28;20438;-60
2023/08/13 02:09:58;;;;;;;11.90;11.38;;;;;;;;;;5070167;28;20020;-59
2023/08/13 02:12:23;;;;;;;12.30;11.70;;;;;;;;;;5069940;28;20028;-60
2023/08/13 02:14:49;;;;;;;11.57;11.07;;;;;;;;;;5068443;28;20098;-60
2023/08/13 02:17:14;;;;;;;12.15;11.55;;;;;;;;;;5068925;28;20583;-59
2023/08/13 02:19:40;;;;;;;12.20;11.60;;;;;;;;;;5069150;28;20436;-60
2023/08/13 02:22:06;;;;;;;13.05;12.45;;;;;;;;;;5070008;28;20032;-61
2023/08/13 02:24:31;;;;;;;12.27;11.68;;;;;;;;;;5066909;28;20031;-61
2023/08/13 02:26:56;;;;;;;12.10;11.50;;;;;;;;;;5070719;28;20016;-61
2023/08/13 02:29:22;;;;;;;12.32;11.73;;;;;;;;;;5070960;28;20125;-60
2023/08/13 02:31:47;;;;;;;12.15;11.55;;;;;;;;;;5072131;28;20027;-60
2023/08/13 02:34:12;;;;;;;11.85;11.35;;;;;;;;;;5070115;28;20024;-59
2023/08/13 02:36:37;;;;;;;11.60;11.10;;;;;;;;;;5071579;28;20027;-60
2023/08/13 02:39:03;;;;;;;12.43;11.82;;;;;;;;;;5073539;28;20039;-61
2023/08/13 02:41:28;;;;;;;11.48;10.98;;;;;;;;;;5068924;28;20115;-61
2023/08/13 02:43:54;;;;;;;12.10;11.50;;;;;;;;;;5069647;28;20059;-60
2023/08/13 02:46:21;;;;;;;12.30;11.70;;;;;;;;;;5072949;28;20052;-59
2023/08/13 02:48:46;;;;;;;12.30;11.70;;;;;;;;;;5069543;28;20597;-60
2023/08/13 02:51:14;;;;;;;11.88;11.38;;;;;;;;;;5070235;28;20104;-60
2023/08/13 02:53:43;;;;;;;12.50;11.90;;;;;;;;;;5069100;28;20020;-61
2023/08/13 02:56:08;;;;;;;11.75;11.25;;;;;;;;;;5069998;28;20024;-61
2023/08/13 02:58:34;;;;;;;11.98;11.43;;;;;;;;;;5069177;28;20528;-61
2023/08/13 03:00:59;;;;;;;12.05;11.48;;;;;;;;;;5075310;28;20012;-60
2023/08/13 03:03:25;;;;;;;11.90;11.38;;;;;;;;;;5073659;28;20053;-61
2023/08/13 03:05:50;;;;;;;11.95;11.35;;;;;;;;;;5070349;28;20021;-60
2023/08/13 03:08:15;;;;;;;12.00;11.40;;;;;;;;;;5075152;28;20075;-60
2023/08/13 03:10:41;;;;;;;11.73;11.23;;;;;;;;;;5072427;28;20043;-60
2023/08/13 03:13:06;;;;;;;11.63;11.13;;;;;;;;;;5074098;28;20020;-61
2023/08/13 03:15:31;;;;;;;11.80;11.30;;;;;;;;;;5075296;28;20020;-61
2023/08/13 03:17:56;;;;;;;12.32;11.73;;;;;;;;;;5073640;28;20048;-60
2023/08/13 03:20:22;;;;;;;12.10;11.50;;;;;;;;;;5073520;28;20021;-60
2023/08/13 03:22:47;;;;;;;12.00;11.40;;;;;;;;;;5071844;28;20017;-60
2023/08/13 03:25:12;;;;;;;11.57;11.07;;;;;;;;;;5072689;28;20107;-60
2023/08/13 03:27:38;;;;;;;11.57;11.07;;;;;;;;;;5069044;28;20447;-60
2023/08/13 03:30:03;;;;;;;11.45;10.95;;;;;;;;;;5072840;28;20079;-60
2023/08/13 03:32:29;;;;;;;11.82;11.32;;;;;;;;;;5071261;28;20021;-60
2023/08/13 03:34:54;;;;;;;11.77;11.27;;;;;;;;;;5073497;28;20031;-61
2023/08/13 03:37:19;;;;;;;11.80;11.30;;;;;;;;;;5072119;28;20041;-61
2023/08/13 03:39:45;;;;;;;11.73;11.23;;;;;;;;;;5071865;28;20024;-60
2023/08/13 03:42:10;;;;;;;12.48;11.88;;;;;;;;;;5077649;28;20020;-61
2023/08/13 03:44:35;;;;;;;11.90;11.40;;;;;;;;;;5074769;28;20021;-59
2023/08/13 03:47:01;;;;;;;12.45;11.85;;;;;;;;;;5072666;28;20197;-60
2023/08/13 03:49:26;;;;;;;12.70;12.10;;;;;;;;;;5071601;28;20090;-59
2023/08/13 03:51:51;;;;;;;12.23;11.68;;;;;;;;;;5073278;28;20013;-61
2023/08/13 03:54:17;;;;;;;12.40;11.80;;;;;;;;;;5071971;28;20476;-60
2023/08/13 03:56:42;;;;;;;12.27;11.73;;;;;;;;;;5074608;28;20029;-60
2023/08/13 03:59:07;;;;;;;12.35;11.75;;;;;;;;;;5072367;28;20028;-61
2023/08/13 04:01:33;;;;;;;12.48;11.88;;;;;;;;;;5071566;28;20028;-59
2023/08/13 04:03:58;;;;;;;12.05;11.55;;;;;;;;;;5062895;28;20493;-60
2023/08/13 04:06:23;;;;;;;12.40;11.80;;;;;;;;;;5055525;28;20028;-60
2023/08/13 04:08:48;;;;;;;12.57;11.98;;;;;;;;;;5058387;28;20047;-61
2023/08/13 04:11:14;;;;;;;12.80;12.20;;;;;;;;;;5059090;28;20396;-59
2023/08/13 04:13:39;;;;;;;12.35;11.77;;;;;;;;;;5057463;28;20112;-60
2023/08/13 04:16:04;;;;;;;12.65;12.05;;;;;;;;;;5051939;28;20069;-61
2023/08/13 04:18:30;;;;;;;12.75;12.15;;;;;;;;;;5050257;28;20056;-61
2023/08/13 04:20:55;;;;;;;12.52;11.93;;;;;;;;;;5056287;28;20059;-60
2023/08/13 04:23:20;;;;;;;12.45;11.90;;;;;;;;;;5052568;28;20028;-61
2023/08/13 04:25:46;;;;;;;12.68;12.07;;;;;;;;;;5059857;28;20024;-61
2023/08/13 04:28:11;;;;;;;12.60;12.00;;;;;;;;;;5054241;28;20024;-61
2023/08/13 04:30:36;;;;;;;12.90;12.30;;;;;;;;;;5051668;28;20265;-61
2023/08/13 04:33:02;;;;;;;12.80;12.20;;;;;;;;;;5052285;28;20111;-60
2023/08/13 04:35:27;;;;;;;12.90;12.30;;;;;;;;;;5056242;28;20280;-62
2023/08/13 04:37:52;;;;;;;13.00;12.40;;;;;;;;;;5054337;28;20435;-60
2023/08/13 04:40:18;;;;;;;12.77;12.18;;;;;;;;;;5055372;28;20028;-60
2023/08/13 04:42:43;;;;;;;13.15;12.55;;;;;;;;;;5058067;28;20495;-60
2023/08/13 04:45:09;;;;;;;12.87;12.27;;;;;;;;;;5059883;28;20020;-60
2023/08/13 04:47:34;;;;;;;12.60;12.00;;;;;;;;;;5056591;28;20163;-61
2023/08/13 04:49:59;;;;;;;12.68;12.07;;;;;;;;;;5053310;28;20025;-61
2023/08/13 04:52:25;;;;;;;12.80;12.20;;;;;;;;;;5052339;28;20136;-60
2023/08/13 04:54:50;;;;;;;12.88;12.27;;;;;;;;;;5060008;28;20441;-60
2023/08/13 04:57:15;;;;;;;12.50;11.90;;;;;;;;;;5054793;28;20043;-60
2023/08/13 04:59:42;;;;;;;12.80;12.20;;;;;;;;;;5056196;28;20251;-60
2023/08/13 05:02:07;;;;;;;12.80;12.20;;;;;;;;;;5061196;28;20257;-60
2023/08/13 05:04:32;;;;;;;12.73;12.13;;;;;;;;;;5067700;28;20041;-60
2023/08/13 05:06:57;;;;;;;12.70;12.10;;;;;;;;;;5069943;28;20296;-59
2023/08/13 05:09:23;;;;;;;12.77;12.17;;;;;;;;;;5075223;28;20103;-60
2023/08/13 05:11:48;;;;;;;12.60;12.00;;;;;;;;;;5072297;28;20369;-61
2023/08/13 05:14:13;;;;;;;12.73;12.13;;;;;;;;;;5071619;28;20252;-62
2023/08/13 05:16:39;;;;;;;13.00;12.40;;;;;;;;;;5071485;28;20453;-61
2023/08/13 05:19:04;;;;;;;12.90;12.30;;;;;;;;;;5070289;28;20016;-60
2023/08/13 05:21:30;;;;;;;12.60;12.00;;;;;;;;;;5070537;28;20254;-63
2023/08/13 05:23:55;;;;;;;12.73;12.13;;;;;;;;;;5075594;28;20111;-61
2023/08/13 05:26:20;;;;;;;12.40;11.88;;;;;;;;;;5068631;28;20035;-61
2023/08/13 05:28:46;;;;;;;12.90;12.30;;;;;;;;;;5071775;28;20472;-60
2023/08/13 05:31:11;;;;;;;12.20;11.70;;;;;;;;;;5071026;28;20024;-60
2023/08/13 05:33:37;;;;;;;12.80;12.20;;;;;;;;;;5068637;28;20017;-61
2023/08/13 05:36:02;;;;;;;12.77;12.18;;;;;;;;;;5070177;28;20309;-60
2023/08/13 05:38:28;;;;;;;12.32;11.80;;;;;;;;;;5070700;28;20078;-61
2023/08/13 05:40:53;;;;;;;12.63;12.02;;;;;;;;;;5070855;28;20017;-60
2023/08/13 05:43:18;;;;;;;12.85;12.25;;;;;;;;;;5068272;28;20107;-61
2023/08/13 05:45:44;;;;;;;12.70;12.10;;;;;;;;;;5073336;28;20028;-60
2023/08/13 05:48:09;;;;;;;12.55;11.98;;;;;;;;;;5069900;28;20245;-61
2023/08/13 05:50:34;;;;;;;12.68;12.07;;;;;;;;;;5067606;28;20135;-60
2023/08/13 05:53:00;;;;;;;12.53;11.97;;;;;;;;;;5068194;28;20629;-60
2023/08/13 05:55:25;;;;;;;12.37;11.87;;;;;;;;;;5067319;28;20025;-61
2023/08/13 05:57:50;;;;;;;12.43;11.88;;;;;;;;;;5071573;28;20253;-61
2023/08/13 06:00:16;;;;;;;12.32;11.82;;;;;;;;;;5070897;28;20110;-59
2023/08/13 06:02:41;;;;;;;12.65;12.05;;;;;;;;;;5070564;28;20064;-61
2023/08/13 06:05:07;;;;;;;12.20;11.70;;;;;;;;;;5070643;28;20380;-59
2023/08/13 06:07:33;;;;;;;12.23;11.73;;;;;;;;;;5070204;28;20257;-60
2023/08/13 06:09:58;;;;;;;12.55;11.95;;;;;;;;;;5069399;28;20024;-61
2023/08/13 06:12:24;;;;;;;12.60;12.00;;;;;;;;;;5069947;28;20372;-60
2023/08/13 06:14:49;;;;;;;12.17;11.67;;;;;;;;;;5067777;28;20075;-61
2023/08/13 06:17:14;;;;;;;12.60;12.00;;;;;;;;;;5071150;28;20316;-62
2023/08/13 06:19:39;;;;;;;12.03;11.53;;;;;;;;;;5070369;28;20035;-62
2023/08/13 06:22:05;;;;;;;12.30;11.80;;;;;;;;;;5067277;28;20033;-62
2023/08/13 06:24:30;;;;;;;12.30;11.80;;;;;;;;;;5064446;28;20064;-62
2023/08/13 06:26:55;;;;;;;12.40;11.90;;;;;;;;;;5069456;28;20024;-62
2023/08/13 06:29:21;;;;;;;11.93;11.43;;;;;;;;;;5069700;28;20059;-62
2023/08/13 06:31:46;;;;;;;12.13;11.63;;;;;;;;;;5071367;28;20680;-61
2023/08/13 06:34:13;;;;;;;12.43;11.88;;;;;;;;;;5072032;28;20257;-61
2023/08/13 06:36:39;;;;;;;12.15;11.65;;;;;;;;;;5068804;28;20108;-62
2023/08/13 06:39:05;;;;;;;12.15;11.65;;;;;;;;;;5067744;28;20104;-61
2023/08/13 06:41:31;;;;;;;12.07;11.57;;;;;;;;;;5068376;28;20034;-65
2023/08/13 06:43:56;;;;;;;12.50;11.93;;;;;;;;;;5069737;28;20020;-73
2023/08/13 06:46:21;;;;;;;12.50;11.90;;;;;;;;;;5067811;28;20302;-60
2023/08/13 06:48:47;;;;;;;12.30;11.80;;;;;;;;;;5069294;28;20602;-60
2023/08/13 06:51:12;;;;;;;12.75;12.15;;;;;;;;;;5066681;28;20028;-60
2023/08/13 06:53:38;;;;;;;12.70;12.10;;;;;;;;;;5068571;28;20028;-64
2023/08/13 06:56:03;;;;;;;12.60;12.00;;;;;;;;;;5070836;28;20024;-60
2023/08/13 06:58:28;;;;;;;12.70;12.10;;;;;;;;;;5072256;28;20021;-60
2023/08/13 07:00:54;;;;;;;12.47;11.90;;;;;;;;;;5069311;28;20028;-60
2023/08/13 07:03:19;;;;;;;12.20;11.70;;;;;;;;;;5068429;28;20425;-61
2023/08/13 07:05:45;;;;;;;12.50;11.93;;;;;;;;;;5068264;28;20027;-60
2023/08/13 07:08:10;;;;;;;12.80;12.20;;;;;;;;;;5063948;28;20261;-61
2023/08/13 07:10:36;;;;;;;12.82;12.23;;;;;;;;;;5070208;28;20036;-60
2023/08/13 07:13:01;;;;;;;12.60;12.00;;;;;;;;;;5067506;28;20025;-60
2023/08/13 07:15:27;;;;;;;12.57;11.98;;;;;;;;;;5067349;28;20032;-61
2023/08/13 07:17:52;;;;;;;12.63;12.02;;;;;;;;;;5064792;28;20670;-61
2023/08/13 07:20:18;;;;;;;12.60;12.00;;;;;;;;;;5068719;28;20020;-65
2023/08/13 07:22:44;;;;;;;12.65;12.05;;;;;;;;;;5069695;28;20300;-63
2023/08/13 07:25:11;;;;;;;12.30;11.80;;;;;;;;;;5071270;28;20035;-62
2023/08/13 07:27:36;;;;;;;12.45;11.88;;;;;;;;;;5070841;28;20035;-63
2023/08/13 07:30:02;;;;;;;12.18;11.68;;;;;;;;;;5069739;28;20103;-63
2023/08/13 07:32:28;;;;;;;12.50;11.95;;;;;;;;;;5070049;28;20459;-63
2023/08/13 07:34:53;;;;;;;12.70;12.10;;;;;;;;;;5068626;28;20027;-65
2023/08/13 07:37:18;;;;;;;12.40;11.90;;;;;;;;;;5060460;28;20516;-63
2023/08/13 07:39:44;;;;;;;12.10;11.60;;;;;;;;;;5064011;28;20492;-62
2023/08/13 07:42:09;;;;;;;12.43;11.90;;;;;;;;;;5064450;28;20100;-63
2023/08/13 07:44:35;;;;;;;12.02;11.52;;;;;;;;;;5064022;28;20434;-64
2023/08/13 07:47:00;;;;;;;12.48;11.93;;;;;;;;;;5065974;28;20056;-63
2023/08/13 07:49:26;;;;;;;12.10;11.60;;;;;;;;;;5070079;28;20067;-63
2023/08/13 07:51:52;;;;;;;12.43;11.90;;;;;;;;;;5071135;28;20486;-62
2023/08/13 07:54:17;;;;;;;12.50;11.95;;;;;;;;;;5072270;28;20017;-63
2023/08/13 07:56:43;;;;;;;12.40;11.90;;;;;;;;;;5072622;28;20103;-64
2023/08/13 07:59:09;;;;;;;12.20;11.70;;;;;;;;;;5073036;28;20029;-63
2023/08/13 08:01:34;;;;;;;12.23;11.73;;;;;;;;;;5070640;28;20028;-64
2023/08/13 08:03:59;;;;;;;12.40;11.90;;;;;;;;;;5075925;28;20052;-64
2023/08/13 08:06:25;;;;;;;12.40;11.90;;;;;;;;;;5075152;28;20036;-61
2023/08/13 08:08:50;;;;;;;12.50;11.93;;;;;;;;;;5056684;28;20261;-61
2023/08/13 08:11:15;;;;;;;12.68;12.07;;;;;;;;;;5076773;28;20254;-62
2023/08/13 08:13:42;;;;;;;12.50;11.95;;;;;;;;;;5075387;28;20075;-63
2023/08/13 08:16:08;;;;;;;12.13;11.63;;;;;;;;;;5074859;28;20104;-61
2023/08/13 08:18:33;;;;;;;12.43;11.90;;;;;;;;;;5073963;28;20567;-61
2023/08/13 08:20:58;;;;;;;12.10;11.60;;;;;;;;;;5071521;28;20012;-62
2023/08/13 08:23:24;;;;;;;12.13;11.63;;;;;;;;;;5054469;28;20119;-62
2023/08/13 08:25:49;;;;;;;12.07;11.57;;;;;;;;;;5072382;28;20036;-62
2023/08/13 08:28:14;;;;;;;12.00;11.50;;;;;;;;;;5071382;28;20801;-60
2023/08/13 08:30:40;;;;;;;12.55;11.98;;;;;;;;;;5070214;28;20476;-61
2023/08/13 08:33:06;;;;;;;12.20;11.70;;;;;;;;;;5069208;28;20020;-61
2023/08/13 08:35:33;;;;;;;11.98;11.48;;;;;;;;;;5074482;28;20663;-61
2023/08/13 08:37:59;;;;;;;12.10;11.60;;;;;;;;;;5073769;28;20025;-60
2023/08/13 08:40:24;;;;;;;12.30;11.80;;;;;;;;;;5071607;28;20021;-60
2023/08/13 08:42:50;;;;;;;12.35;11.85;;;;;;;;;;5070338;28;20017;-62
2023/08/13 08:45:16;;;;;;;12.60;12.00;;;;;;;;;;5070749;28;20027;-62
2023/08/13 08:47:42;;;;;;;12.32;11.82;;;;;;;;;;5068617;28;20035;-60
2023/08/13 08:50:09;;;;;;;12.25;11.75;;;;;;;;;;5071129;28;20025;-61
2023/08/13 08:52:35;;;;;;;12.60;12.00;;;;;;;;;;5072146;28;20023;-61
2023/08/13 08:55:01;;;;;;;12.02;11.52;;;;;;;;;;5072417;28;20040;-62
2023/08/13 08:57:26;;;;;;;12.20;11.70;;;;;;;;;;5069233;28;20059;-61
2023/08/13 08:59:52;;;;;;;12.32;11.82;;;;;;;;;;5074795;28;20040;-63
2023/08/13 09:02:17;;;;;;;12.48;11.90;;;;;;;;;;5069119;28;20091;-64
2023/08/13 09:04:43;;;;;;;11.97;11.47;;;;;;;;;;5070501;28;20021;-64
2023/08/13 09:07:08;;;;;;;12.50;11.90;;;;;;;;;;5070994;28;20886;-64
2023/08/13 09:09:34;;;;;;;12.50;11.90;;;;;;;;;;5054694;28;20116;-63
2023/08/13 09:12:00;;;;;;;12.25;11.75;;;;;;;;;;5068497;28;20380;-63
2023/08/13 09:14:25;;;;;;;12.20;11.70;;;;;;;;;;5070823;28;20024;-64
2023/08/13 09:16:51;;;;;;;12.30;11.80;;;;;;;;;;5069743;28;20028;-64
2023/08/13 09:19:17;;;;;;;12.10;11.60;;;;;;;;;;5071269;28;20020;-62
2023/08/13 09:22:01;;;;;;;11.93;11.43;;;;;;;;;;5072057;28;20483;-62
2023/08/13 09:24:31;;;;;;;11.70;11.20;;;;;;;;;;5069539;28;20016;-63
2023/08/13 09:26:57;;;;;;;12.13;11.63;;;;;;;;;;5070787;28;20036;-63
2023/08/13 09:29:22;;;;;;;12.57;11.97;;;;;;;;;;5069226;28;20364;-64
2023/08/13 09:31:47;;;;;;;11.90;11.40;;;;;;;;;;5070338;28;20253;-64
2023/08/13 09:34:13;;;;;;;12.00;11.50;;;;;;;;;;5070489;28;20025;-64
2023/08/13 09:36:38;;;;;;;12.10;11.60;;;;;;;;;;5070202;28;20024;-64
2023/08/13 09:39:03;;;;;;;11.80;11.30;;;;;;;;;;5070650;28;20352;-63
2023/08/13 09:41:29;;;;;;;11.98;11.48;;;;;;;;;;5070958;28;20260;-63
2023/08/13 09:43:55;;;;;;;12.23;11.73;;;;;;;;;;5068257;28;20514;-63
2023/08/13 09:46:21;;;;;;;12.77;12.18;;;;;;;;;;5070963;28;20036;-63
2023/08/13 09:48:47;;;;;;;12.15;11.65;;;;;;;;;;5070558;28;20031;-63
2023/08/13 09:51:13;;;;;;;11.95;11.45;;;;;;;;;;5070574;28;20028;-64
2023/08/13 09:53:41;;;;;;;12.40;11.85;;;;;;;;;;5070380;28;20013;-64
2023/08/13 09:56:06;;;;;;;12.02;11.52;;;;;;;;;;5069246;28;20043;-63
2023/08/13 09:58:32;;;;;;;11.55;11.05;;;;;;;;;;5068331;28;20433;-63
2023/08/13 10:00:59;;;;;;;11.80;11.30;;;;;;;;;;5072985;28;20025;-63
2023/08/13 10:03:24;;;;;;;12.18;11.68;;;;;;;;;;5069798;28;20130;-64
2023/08/13 10:05:50;;;;;;;11.80;11.30;;;;;;;;;;5071151;28;20024;-63
2023/08/13 10:08:15;;;;;;;12.05;11.55;;;;;;;;;;5069496;28;20024;-64
2023/08/13 10:10:41;;;;;;;11.85;11.35;;;;;;;;;;5067674;28;20119;-63
2023/08/13 10:13:06;;;;;;;11.75;11.25;;;;;;;;;;5067683;28;20032;-63
2023/08/13 10:15:32;;;;;;;12.18;11.68;;;;;;;;;;5068554;28;20047;-64
2023/08/13 10:17:58;;;;;;;12.20;11.70;;;;;;;;;;5069358;28;20036;-63
2023/08/13 10:20:25;;;;;;;12.05;11.55;;;;;;;;;;5070232;28;20016;-63
2023/08/13 10:22:51;;;;;;;11.90;11.40;;;;;;;;;;5069564;28;20044;-63
2023/08/13 10:25:27;;;;;;;11.93;11.43;;;;;;;;;;5070435;28;20468;-62
2023/08/13 10:27:54;;;;;;;11.93;11.43;;;;;;;;;;5068407;28;20387;-63
2023/08/13 10:30:19;;;;;;;11.80;11.30;;;;;;;;;;5069719;28;20063;-64
2023/08/13 10:32:48;;;;;;;11.93;11.43;;;;;;;;;;5070442;28;20114;-63
2023/08/13 10:35:24;;;;;;;11.80;11.30;;;;;;;;;;5070155;28;20028;-63
2023/08/13 10:37:51;;;;;;;11.95;11.45;;;;;;;;;;5070026;28;20019;-63
2023/08/13 10:40:18;;;;;;;12.20;11.70;;;;;;;;;;5066503;28;20032;-62
2023/08/13 10:42:43;;;;;;;12.00;11.50;;;;;;;;;;5069992;28;20033;-63
2023/08/13 10:45:10;;;;;;;11.95;11.45;;;;;;;;;;5069946;28;20039;-63
2023/08/13 10:47:39;;;;;;;11.85;11.35;;;;;;;;;;5069425;28;20052;-63
2023/08/13 10:50:13;;;;;;;12.27;11.75;;;;;;;;;;5068694;28;20380;-63
2023/08/13 10:52:38;;;;;;;12.63;12.02;;;;;;;;;;5071101;28;20506;-63
2023/08/13 10:55:04;;;;;;;12.07;11.57;;;;;;;;;;5069952;28;20025;-64
2023/08/13 10:57:30;;;;;;;11.80;11.30;;;;;;;;;;5071214;28;20060;-64
2023/08/13 10:59:56;;;;;;;12.13;11.63;;;;;;;;;;5069193;28;20035;-62
2023/08/13 11:02:21;;;;;;;11.85;11.35;;;;;;;;;;5068083;28;20043;-62
2023/08/13 11:04:48;;;;;;;11.75;11.25;;;;;;;;;;5068847;28;20016;-62
2023/08/13 11:07:14;;;;;;;11.90;11.40;;;;;;;;;;5068254;28;20020;-63
2023/08/13 11:09:39;;;;;;;11.55;11.05;;;;;;;;;;5067794;28;20541;-64
2023/08/13 11:12:07;;;;;;;11.93;11.43;;;;;;;;;;5068890;28;20052;-64
2023/08/13 11:14:32;;;;;;;12.05;11.55;;;;;;;;;;5071563;28;20047;-64
2023/08/13 11:16:58;;;;;;;12.05;11.55;;;;;;;;;;5069199;28;20645;-63
2023/08/13 11:19:23;;;;;;;12.02;11.52;;;;;;;;;;5070019;28;20044;-64
2023/08/13 11:21:48;;;;;;;11.68;11.18;;;;;;;;;;5073872;28;20021;-63
2023/08/13 11:24:14;;;;;;;12.02;11.52;;;;;;;;;;5053468;28;20414;-63
2023/08/13 11:26:39;;;;;;;11.98;11.48;;;;;;;;;;5073502;28;20024;-63
2023/08/13 11:29:05;;;;;;;11.82;11.32;;;;;;;;;;5072318;28;20039;-63
2023/08/13 11:31:32;;;;;;;12.02;11.52;;;;;;;;;;5073234;28;20036;-63
2023/08/13 11:33:57;;;;;;;11.85;11.35;;;;;;;;;;5071374;28;20377;-63
2023/08/13 11:36:23;;;;;;;11.85;11.35;;;;;;;;;;5071996;28;20047;-63
2023/08/13 11:38:48;;;;;;;12.15;11.65;;;;;;;;;;5073090;28;20038;-63
2023/08/13 11:41:14;;;;;;;12.18;11.68;;;;;;;;;;5071745;28;20020;-63
2023/08/13 11:43:39;;;;;;;12.18;11.68;;;;;;;;;;5072617;28;20371;-62
2023/08/13 11:46:05;;;;;;;11.95;11.45;;;;;;;;;;5073348;28;20021;-62
2023/08/13 11:48:31;;;;;;;11.73;11.23;;;;;;;;;;5072070;28;20500;-63
2023/08/13 11:51:10;;;;;;;11.88;11.38;;;;;;;;;;5072305;28;20391;-63
2023/08/13 11:53:42;;;;;;;11.77;11.27;;;;;;;;;;5071327;28;20056;-64
2023/08/13 11:56:08;;;;;;;12.27;11.77;;;;;;;;;;5072682;28;20079;-64
2023/08/13 11:58:33;;;;;;;11.90;11.40;;;;;;;;;;5072453;28;20020;-62
2023/08/13 12:00:59;;;;;;;12.00;11.50;;;;;;;;;;5070199;28;20031;-64
2023/08/13 12:03:24;;;;;;;12.10;11.60;;;;;;;;;;5072230;28;20049;-63
2023/08/13 12:05:51;;;;;;;11.77;11.27;;;;;;;;;;5070303;28;20025;-64
2023/08/13 12:08:16;;;;;;;11.82;11.32;;;;;;;;;;5072906;28;20261;-63
2023/08/13 12:10:42;;;;;;;11.57;11.07;;;;;;;;;;5071312;28;20036;-63
2023/08/13 12:13:07;;;;;;;11.82;11.32;;;;;;;;;;5072865;28;20438;-63
2023/08/13 12:15:32;;;;;;;11.60;11.10;;;;;;;;;;5071397;28;20028;-64
2023/08/13 12:17:58;;;;;;;11.60;11.10;;;;;;;;;;5072390;28;20260;-63
2023/08/13 12:20:24;;;;;;;11.90;11.40;;;;;;;;;;5070718;28;20051;-63
2023/08/13 12:22:49;;;;;;;11.75;11.25;;;;;;;;;;5072360;28;20055;-63
2023/08/13 12:25:15;;;;;;;11.95;11.45;;;;;;;;;;5071975;28;20020;-65
2023/08/13 12:27:42;;;;;;;11.85;11.35;;;;;;;;;;5072858;28;20271;-63
2023/08/13 12:30:07;;;;;;;11.77;11.27;;;;;;;;;;5073317;28;20099;-63
2023/08/13 12:32:33;;;;;;;11.93;11.43;;;;;;;;;;5072094;28;20107;-64
2023/08/13 12:34:59;;;;;;;11.90;11.40;;;;;;;;;;5072061;28;20102;-62
2023/08/13 12:37:24;;;;;;;11.63;11.13;;;;;;;;;;5071937;28;20121;-64
2023/08/13 12:39:50;;;;;;;11.73;11.23;;;;;;;;;;5074640;28;20074;-64
2023/08/13 12:42:15;;;;;;;11.90;11.40;;;;;;;;;;5072173;28;20095;-63
2023/08/13 12:44:40;;;;;;;11.70;11.20;;;;;;;;;;5071272;28;21023;-63
2023/08/13 12:47:06;;;;;;;11.95;11.45;;;;;;;;;;5071539;28;20028;-64
2023/08/13 12:49:31;;;;;;;11.80;11.30;;;;;;;;;;5069076;28;20024;-63
2023/08/13 12:51:57;;;;;;;11.60;11.10;;;;;;;;;;5073595;28;20040;-64
2023/08/13 12:54:22;;;;;;;11.57;11.07;;;;;;;;;;5054631;28;20017;-63
2023/08/13 12:56:47;;;;;;;11.52;11.02;;;;;;;;;;5071247;28;20396;-63
2023/08/13 12:59:13;;;;;;;11.53;11.03;;;;;;;;;;5071746;28;20024;-63
2023/08/13 13:01:38;;;;;;;11.73;11.23;;;;;;;;;;5069287;28;20249;-63
2023/08/13 13:04:03;;;;;;;11.90;11.40;;;;;;;;;;5071879;28;20335;-63
2023/08/13 13:06:29;;;;;;;12.07;11.57;;;;;;;;;;5070127;28;20459;-63
2023/08/13 13:08:54;;;;;;;12.18;11.68;;;;;;;;;;5070004;28;20035;-65
2023/08/13 13:11:19;;;;;;;11.95;11.45;;;;;;;;;;5071064;28;20027;-63
2023/08/13 13:13:45;;;;;;;11.88;11.38;;;;;;;;;;5052715;28;20029;-63
2023/08/13 13:16:11;;;;;;;11.68;11.18;;;;;;;;;;5069566;28;20425;-64
2023/08/13 13:18:36;;;;;;;11.93;11.43;;;;;;;;;;5071758;28;20020;-64
2023/08/13 13:21:01;;;;;;;11.90;11.40;;;;;;;;;;5070587;28;20162;-64
2023/08/13 13:23:27;;;;;;;11.65;11.15;;;;;;;;;;5069832;28;20021;-63
2023/08/13 13:25:52;;;;;;;11.60;11.10;;;;;;;;;;5069151;28;20079;-63
2023/08/13 13:28:18;;;;;;;11.48;10.98;;;;;;;;;;5069975;28;20732;-64
2023/08/13 13:30:43;;;;;;;11.48;10.98;;;;;;;;;;5071461;28;20391;-63
2023/08/13 13:33:08;;;;;;;11.65;11.15;;;;;;;;;;5071838;28;20860;-63
2023/08/13 13:35:34;;;;;;;11.95;11.45;;;;;;;;;;5055192;28;20115;-64
2023/08/13 13:37:59;;;;;;;11.65;11.15;;;;;;;;;;5071873;28;20103;-63
2023/08/13 13:40:25;;;;;;;11.60;11.10;;;;;;;;;;5076336;28;20486;-63
2023/08/13 13:42:51;;;;;;;11.85;11.35;;;;;;;;;;5071868;28;20016;-63
2023/08/13 13:45:16;;;;;;;11.77;11.27;;;;;;;;;;5073525;28;20030;-63
2023/08/13 13:47:42;;;;;;;11.80;11.30;;;;;;;;;;5070985;28;20016;-64
2023/08/13 13:50:07;;;;;;;11.63;11.13;;;;;;;;;;5069694;28;20024;-64
2023/08/13 13:52:33;;;;;;;11.70;11.20;;;;;;;;;;5069073;28;20497;-65
2023/08/13 13:54:58;;;;;;;11.48;10.98;;;;;;;;;;5069518;28;20036;-64
2023/08/13 13:57:25;;;;;;;11.65;11.15;;;;;;;;;;5070124;28;20048;-63
2023/08/13 13:59:50;;;;;;;11.60;11.10;;;;;;;;;;5069156;28;20035;-63
2023/08/13 14:02:16;;;;;;;12.02;11.52;;;;;;;;;;5071922;28;20099;-64
2023/08/13 14:04:41;;;;;;;11.57;11.07;;;;;;;;;;5069968;28;20029;-63
2023/08/13 14:07:06;;;;;;;11.60;11.10;;;;;;;;;;5070119;28;20028;-62
2023/08/13 14:09:31;;;;;;;11.90;11.40;;;;;;;;;;5070609;28;20043;-64